West Chicago, Illinois
Current Conditions -  °F | °C
As of 10:52 PM on Thursday 30 Oct 2014 (Local Time) from KDPA Reporting Station
Overcast Overcast  
Wind Chill: 41°   Ceiling: 11000
Heat Index: 45°   Visibility: 10mi
Dew Point: 37°   Wind: 7mph
Humidity: 74%   Direction: 270°W
Pressure: 30.05"   Gusts: NA
Location:  41.88°N, 88.2°W
Report Text: KDPA 310352Z 27006KT 10SM OVC110 07/03 A3005 RMK AO2 SLP179 T00720028
Loading
Personal Weather Stations






























Interactive Weather Map
Tropical Storm Tracking
New forecast layout! Learn more

10-Day Weather Forecast

Advertisements
Track Severe Weather on mobile